Terminal Aerodrome Forecast
Issued by NWS Bismarck, ND

Home | Current Version | Previous Version | Graphics & Text | Print | Product List | Glossary On
Versions: 1 2 3 4 5 6 7 8 9 10 11 12 13 14 15 16 17 18
156
FTUS43 KBIS 100531
TAFBIS
TAF
KBIS 100531Z 1006/1106 10008KT P6SM VCSH OVC040
     FM100800 13007KT 5SM -SN OVC035
     FM101200 11007KT P6SM OVC030
     FM101600 10007KT P6SM OVC020
     FM101800 07006KT P6SM OVC010
     FM102100 01008KT P6SM OVC010=

USA.gov is the U.S. government's official web portal to all federal, state and local government web resources and services.